RJFR/KKJ METAR and TAF weather

Enter ICAO airport designator
Station Type Date Time Source
RJFR METAR 2019/06/16 20:00 UTC NOAA

RJFR 162000Z 32001KT 9999 FEW010 BKN/// 18/15 Q1012


Station Type Date Time Source
RJFR Decoded METAR 2019/06/16 20:00 UTC NOAA

Kitakyushu Airport, Japan (RJFR) 33-50N 130-57E 6M
Jun 16, 2019 - 04:00 PM EDT / 2019.06.16 2000 UTC
Wind: from the NW (320 degrees) at 1 MPH (1 KT):0
Visibility: greater than 7 mile(s):0
Sky conditions: mostly cloudy
Temperature: 64 F (18 C)
Dew Point: 59 F (15 C)
Relative Humidity: 82%
Pressure (altimeter): 29.88 in. Hg (1012 hPa)
ob: RJFR 162000Z 32001KT 9999 FEW010 BKN/// 18/15 Q1012
cycle: 20

Station Type Date Time Source
RJFR TAF 2019/06/16 18:00 UTC NOAA

TAF RJFR 161707Z 1618/1800 36005KT 9999 FEW020
BECMG 1700/1702 10004KT
BECMG 1706/1709 31012KT
BECMG 1718/1721 24003KT

Example: see airport list